This is the latest recevied weather packets stored in our database for station/object SR2GKG-13. If no packets are shown the sender has not sent any weather packets the latest 1 day(s).
| Time | Temp. | Humidity | Pressure | Rain* | Wind** | Luminosity | Snow |
|---|---|---|---|---|---|---|---|
| 1778093683 | 12.78° C | 86% | 995.3 hPa | - | - | - | - |
| 1778091883 | 13.33° C | 81% | 994.6 hPa | - | - | - | - |
| 1778090983 | 13.89° C | 80% | 994.6 hPa | - | - | - | - |
| 1778086482 | 18.33° C | 66% | 994.1 hPa | - | - | - | - |
| 1778085582 | 18.33° C | 64% | 993.9 hPa | - | - | - | - |
| 1778084682 | 18.89° C | 62% | 993.9 hPa | - | - | - | - |
| 1778078380 | 20° C | 59% | 993.9 hPa | - | - | - | - |
| 1778077480 | 18.33° C | 62% | 993.9 hPa | - | - | - | - |
| 1778075680 | 18.89° C | 59% | 993.8 hPa | - | - | - | - |
| 1778068479 | 20° C | 53% | 993.7 hPa | - | - | - | - |
| 1778067579 | 19.44° C | 55% | 993.7 hPa | - | - | - | - |
| 1778066679 | 19.44° C | 56% | 993.8 hPa | - | - | - | - |
| 1778062178 | 18.89° C | 56% | 993.2 hPa | - | - | - | - |
| 1778061278 | 19.44° C | 57% | 993.4 hPa | - | - | - | - |
| 1778060378 | 18.89° C | 58% | 993.3 hPa | - | - | - | - |
| 1778059478 | 18.33° C | 60% | 993.2 hPa | - | - | - | - |
| 1778058578 | 17.78° C | 61% | 993.1 hPa | - | - | - | - |
| 1778057678 | 16.11° C | 73% | 993.4 hPa | - | - | - | - |
| 1778054977 | 16.11° C | 65% | 993.2 hPa | - | - | - | - |
| 1778054077 | 15.56° C | 67% | 993.2 hPa | - | - | - | - |
| 1778053177 | 15.56° C | 67% | 993 hPa | - | - | - | - |
| 1778052277 | 16.67° C | 63% | 992.8 hPa | - | - | - | - |
| 1778051377 | 16.67° C | 63% | 992.9 hPa | - | - | - | - |
| 1778050477 | 15.56° C | 64% | 992.7 hPa | - | - | - | - |
| 1778049577 | 15.56° C | 66% | 992.7 hPa | - | - | - | - |
* Rain since midnight (hover to see other rain measurements)
** Current wind speed in m/s (hover to see current wind gust speed)